createdAt,value
2018-04-25T00:00:16.617Z,12.40
2018-04-25T00:02:44.856Z,12.40
2018-04-25T00:05:13.877Z,12.50
2018-04-25T00:07:42.103Z,12.50
2018-04-25T00:10:10.347Z,12.50
2018-04-25T00:12:38.972Z,12.50
2018-04-25T00:15:07.195Z,12.50
2018-04-25T00:17:35.425Z,12.50
2018-04-25T00:20:04.452Z,12.60
2018-04-25T00:22:32.687Z,12.60
2018-04-25T00:25:01.699Z,12.60
2018-04-25T00:27:30.700Z,12.60
2018-04-25T00:29:58.960Z,12.60
2018-04-25T00:32:27.965Z,12.70
2018-04-25T00:34:56.214Z,12.70
2018-04-25T00:37:25.210Z,12.80
2018-04-25T00:39:54.235Z,12.90
2018-04-25T00:42:22.515Z,12.90
2018-04-25T00:44:50.770Z,13.00
2018-04-25T00:47:19.007Z,13.00
2018-04-25T00:49:47.255Z,13.10
2018-04-25T00:52:15.487Z,13.20
2018-04-25T00:54:43.742Z,13.20
2018-04-25T00:57:12.869Z,13.40
2018-04-25T00:59:41.048Z,13.40
2018-04-25T01:02:09.283Z,13.40
2018-04-25T01:04:38.294Z,13.50
2018-04-25T01:07:06.533Z,13.40
2018-04-25T01:09:34.778Z,13.40
2018-04-25T01:12:03.800Z,13.40
2018-04-25T01:14:32.023Z,13.40
2018-04-25T01:17:00.258Z,13.40
2018-04-25T01:19:29.272Z,13.50
2018-04-25T01:21:57.521Z,13.50
2018-04-25T01:24:25.768Z,13.50
2018-04-25T01:26:53.998Z,13.60
2018-04-25T01:29:23.156Z,13.60
2018-04-25T01:31:53.286Z,13.60
2018-04-25T01:34:42.062Z,13.60
2018-04-25T01:37:33.146Z,13.70
2018-04-25T01:40:01.366Z,13.70
2018-04-25T01:42:29.603Z,13.70
2018-04-25T01:44:59.274Z,13.70
2018-04-25T01:47:28.914Z,13.60
2018-04-25T01:53:09.276Z,13.70
2018-04-25T01:55:55.580Z,13.70
2018-04-25T01:58:41.700Z,13.70
2018-04-25T02:01:19.394Z,13.70
2018-04-25T02:03:48.302Z,13.60
2018-04-25T02:06:17.074Z,13.70
2018-04-25T02:08:45.315Z,13.70
2018-04-25T02:11:13.570Z,13.70
2018-04-25T02:13:41.809Z,13.70
2018-04-25T02:16:10.063Z,13.70
2018-04-25T02:18:38.302Z,13.70
2018-04-25T02:21:06.544Z,13.80
2018-04-25T02:23:34.784Z,13.80
2018-04-25T02:26:03.804Z,13.90
2018-04-25T02:28:32.042Z,13.90
2018-04-25T02:31:01.047Z,14.00
2018-04-25T02:33:29.299Z,14.00
2018-04-25T02:35:58.302Z,14.10
2018-04-25T02:38:27.315Z,14.00
2018-04-25T02:40:55.559Z,14.10
2018-04-25T02:43:24.583Z,14.10
2018-04-25T02:45:52.818Z,14.00
2018-04-25T02:48:21.843Z,14.20
2018-04-25T02:50:50.077Z,14.10
2018-04-25T02:53:18.322Z,14.20
2018-04-25T02:55:46.564Z,14.20
2018-04-25T02:58:14.816Z,14.30
2018-04-25T03:00:43.823Z,14.30
2018-04-25T03:03:12.071Z,14.30
2018-04-25T03:05:41.076Z,14.20
2018-04-25T03:08:10.095Z,14.20
2018-04-25T03:10:38.331Z,14.20
2018-04-25T03:13:07.355Z,14.30
2018-04-25T03:15:35.588Z,14.30
2018-04-25T03:18:03.835Z,14.30
2018-04-25T03:20:32.067Z,14.30
2018-04-25T03:23:00.318Z,14.30
2018-04-25T03:25:29.322Z,14.40
2018-04-25T03:27:58.343Z,14.40
2018-04-25T03:30:26.634Z,14.40
2018-04-25T03:32:54.943Z,14.40
2018-04-25T03:35:23.171Z,14.40
2018-04-25T03:37:51.436Z,14.50
2018-04-25T03:40:19.675Z,14.50
2018-04-25T03:42:48.687Z,14.40
2018-04-25T03:45:16.939Z,14.50
2018-04-25T03:47:45.942Z,14.40
2018-04-25T03:50:15.324Z,14.40
2018-04-25T03:52:43.531Z,14.40
2018-04-25T03:55:11.777Z,14.50
2018-04-25T03:57:40.779Z,14.50
2018-04-25T04:00:09.790Z,14.50
2018-04-25T04:02:38.026Z,14.50
2018-04-25T04:05:06.274Z,14.50
2018-04-25T04:07:34.502Z,14.50
2018-04-25T04:10:02.764Z,14.50
2018-04-25T04:12:31.771Z,14.50
2018-04-25T04:15:00.033Z,14.50
2018-04-25T04:17:29.023Z,14.50
2018-04-25T04:19:58.037Z,14.50
2018-04-25T04:22:26.285Z,14.50
2018-04-25T04:24:55.320Z,14.50
2018-04-25T04:27:23.543Z,14.50
2018-04-25T04:29:52.602Z,14.50
2018-04-25T04:32:20.840Z,14.50
2018-04-25T04:34:49.096Z,14.50
2018-04-25T04:37:18.103Z,14.40
2018-04-25T04:39:46.356Z,14.40
2018-04-25T04:42:15.359Z,14.50
2018-04-25T04:44:44.378Z,14.50
2018-04-25T04:47:12.611Z,14.50
2018-04-25T04:49:41.623Z,14.50
2018-04-25T04:52:09.866Z,14.50
2018-04-25T04:54:38.109Z,14.50
2018-04-25T04:57:07.111Z,14.50
2018-04-25T04:59:35.419Z,14.40
2018-04-25T05:02:03.612Z,14.40
2018-04-25T05:04:31.852Z,14.40
2018-04-25T05:07:00.106Z,14.40
2018-04-25T05:09:28.342Z,14.40
2018-04-25T05:11:56.588Z,14.40
2018-04-25T05:14:25.586Z,14.40
2018-04-25T05:16:54.606Z,14.40
2018-04-25T05:19:22.845Z,14.40
2018-04-25T05:21:51.865Z,14.40
2018-04-25T05:24:20.141Z,14.40
2018-04-25T05:26:49.127Z,14.50
2018-04-25T05:29:17.364Z,14.40
2018-04-25T05:31:45.617Z,14.50
2018-04-25T05:34:13.858Z,14.60
2018-04-25T05:36:42.110Z,14.60
2018-04-25T05:39:10.346Z,14.60
2018-04-25T05:41:38.596Z,14.60
2018-04-25T05:44:06.828Z,14.60
2018-04-25T05:46:35.844Z,14.60
2018-04-25T05:49:04.078Z,14.60
2018-04-25T05:51:33.403Z,14.80
2018-04-25T05:54:01.635Z,14.80
2018-04-25T05:56:29.884Z,14.80
2018-04-25T05:58:58.115Z,14.80
2018-04-25T06:01:27.135Z,14.70
2018-04-25T06:03:55.371Z,14.70
2018-04-25T06:06:24.379Z,14.80
2018-04-25T06:08:52.627Z,14.80
2018-04-25T06:11:21.645Z,14.80
2018-04-25T06:13:49.891Z,14.80
2018-04-25T06:16:18.127Z,14.80
2018-04-25T06:18:46.367Z,14.80
2018-04-25T06:21:14.596Z,14.80
2018-04-25T06:23:42.840Z,14.80
2018-04-25T06:26:11.053Z,14.70
2018-04-25T06:28:39.292Z,14.70
2018-04-25T06:31:07.523Z,14.60
2018-04-25T06:33:36.531Z,14.40
2018-04-25T06:36:04.755Z,14.40
2018-04-25T06:38:32.991Z,14.40
2018-04-25T06:41:01.224Z,14.50
2018-04-25T06:43:29.462Z,14.40
2018-04-25T06:45:57.694Z,14.30
2018-04-25T06:48:26.703Z,14.20
2018-04-25T06:50:54.930Z,14.20
2018-04-25T06:53:23.162Z,14.10
2018-04-25T06:55:51.396Z,14.00
2018-04-25T06:58:20.396Z,14.00
2018-04-25T07:00:48.630Z,14.00
2018-04-25T07:03:16.871Z,14.00
2018-04-25T07:05:45.099Z,14.00
2018-04-25T07:08:14.142Z,14.10
2018-04-25T07:10:43.103Z,14.10
2018-04-25T07:13:11.349Z,14.00
2018-04-25T07:15:39.927Z,13.90
2018-04-25T07:18:08.142Z,13.80
2018-04-25T07:20:36.373Z,13.90
2018-04-25T07:23:04.593Z,14.00
2018-04-25T07:25:32.831Z,14.10
2018-04-25T07:28:01.827Z,14.40
2018-04-25T07:30:30.833Z,14.50
2018-04-25T07:32:59.062Z,14.50
2018-04-25T07:35:27.360Z,14.50
2018-04-25T07:37:55.530Z,14.50
2018-04-25T07:40:23.770Z,14.40
2018-04-25T07:42:52.006Z,14.50
2018-04-25T07:45:20.245Z,14.50
2018-04-25T07:47:48.479Z,14.60
2018-04-25T07:50:16.714Z,14.60
2018-04-25T07:52:45.719Z,14.60
2018-04-25T07:55:13.952Z,14.60
2018-04-25T07:57:42.259Z,14.60
2018-04-25T08:00:10.419Z,14.60
2018-04-25T08:02:39.408Z,14.90
2018-04-25T08:05:08.425Z,15.10
2018-04-25T08:07:36.674Z,15.10
2018-04-25T08:10:05.683Z,15.00
2018-04-25T08:12:45.901Z,15.00
2018-04-25T08:15:26.018Z,14.90
2018-04-25T08:18:06.206Z,14.70
2018-04-25T08:20:49.195Z,14.80
2018-04-25T08:23:17.423Z,14.80
2018-04-25T08:25:46.435Z,13.90
2018-04-25T08:28:14.654Z,13.90
2018-04-25T08:30:43.663Z,13.40
2018-04-25T08:33:11.888Z,13.40
2018-04-25T08:35:40.131Z,13.30
2018-04-25T08:38:09.114Z,13.10
2018-04-25T08:40:38.101Z,13.00
2018-04-25T08:43:07.107Z,13.00
2018-04-25T08:45:36.190Z,12.90
2018-04-25T08:48:05.207Z,13.50
2018-04-25T08:50:33.430Z,13.50
2018-04-25T08:53:01.665Z,14.20
2018-04-25T08:55:30.404Z,14.40
2018-04-25T08:57:58.619Z,14.40
2018-04-25T09:00:26.850Z,14.10
2018-04-25T09:02:55.079Z,14.00
2018-04-25T09:05:23.304Z,14.10
2018-04-25T09:07:52.310Z,13.90
2018-04-25T09:10:21.314Z,13.80
2018-04-25T09:12:49.560Z,13.80
2018-04-25T09:15:17.783Z,13.70
2018-04-25T09:17:46.029Z,13.90
2018-04-25T09:20:14.291Z,14.00
2018-04-25T09:22:42.490Z,14.60
2018-04-25T09:25:10.721Z,15.10
2018-04-25T09:27:38.962Z,15.60
2018-04-25T09:30:07.184Z,15.70
2018-04-25T09:32:36.187Z,15.40
2018-04-25T09:35:05.179Z,15.30
2018-04-25T09:37:33.430Z,15.30
2018-04-25T09:40:01.661Z,15.10
2018-04-25T09:42:29.914Z,15.10
2018-04-25T09:44:58.141Z,15.20
2018-04-25T09:47:26.729Z,15.20
2018-04-25T09:49:54.931Z,15.60
2018-04-25T09:52:23.943Z,14.80
2018-04-25T09:54:52.174Z,14.80
2018-04-25T09:57:20.410Z,14.70
2018-04-25T09:59:48.640Z,14.60
2018-04-25T10:02:23.238Z,14.10
2018-04-25T10:04:51.474Z,14.10
2018-04-25T10:07:19.710Z,13.70
2018-04-25T10:09:48.698Z,13.30
2018-04-25T10:12:18.180Z,13.30
2018-04-25T10:14:46.370Z,13.30
2018-04-25T10:17:15.450Z,13.40
2018-04-25T10:19:43.594Z,13.40
2018-04-25T10:22:11.823Z,13.40
2018-04-25T10:24:40.065Z,13.50
2018-04-25T10:27:08.284Z,13.70
2018-04-25T10:29:36.538Z,13.70
2018-04-25T10:32:05.530Z,13.50
2018-04-25T10:34:33.743Z,13.40
2018-04-25T10:37:01.966Z,13.30
2018-04-25T10:39:30.968Z,13.00
2018-04-25T10:41:59.958Z,12.80
2018-04-25T10:44:28.967Z,12.60
2018-04-25T10:46:57.200Z,12.60
2018-04-25T10:49:25.436Z,12.50
2018-04-25T10:51:53.659Z,12.40
2018-04-25T10:54:22.664Z,12.30
2018-04-25T10:56:50.903Z,12.30
2018-04-25T10:59:19.134Z,12.40
2018-04-25T11:01:47.365Z,12.40
2018-04-25T11:04:15.598Z,12.40
2018-04-25T11:06:43.831Z,12.40
2018-04-25T11:09:12.834Z,12.30
2018-04-25T11:11:41.054Z,12.30
2018-04-25T11:14:09.295Z,12.20
2018-04-25T11:16:37.512Z,12.20
2018-04-25T11:19:05.744Z,12.20
2018-04-25T11:21:33.973Z,12.30
2018-04-25T11:24:02.979Z,12.60
2018-04-25T11:26:32.042Z,12.40
2018-04-25T11:29:00.975Z,12.40
2018-04-25T11:31:29.197Z,12.30
2018-04-25T11:33:57.447Z,12.20
2018-04-25T11:36:25.671Z,12.10
2018-04-25T11:38:54.675Z,11.90
2018-04-25T11:41:22.903Z,11.90
2018-04-25T11:43:51.139Z,11.90
2018-04-25T11:46:19.370Z,11.80
2018-04-25T11:48:47.610Z,11.80
2018-04-25T11:51:15.830Z,11.90
2018-04-25T11:53:44.839Z,12.30
2018-04-25T11:56:13.147Z,12.30
2018-04-25T11:58:41.383Z,12.50
2018-04-25T12:01:10.675Z,12.70
2018-04-25T12:03:39.821Z,12.50
2018-04-25T12:06:08.970Z,12.40
2018-04-25T12:08:37.980Z,12.30
2018-04-25T12:11:06.253Z,12.30
2018-04-25T12:13:34.446Z,12.30
2018-04-25T12:16:02.675Z,12.20
2018-04-25T12:18:31.681Z,12.10
2018-04-25T12:20:59.931Z,12.10
2018-04-25T12:23:28.159Z,12.20
2018-04-25T12:25:56.399Z,12.10
2018-04-25T12:28:24.626Z,12.00
2018-04-25T12:30:52.871Z,12.00
2018-04-25T12:33:21.102Z,12.00
2018-04-25T12:35:50.192Z,12.20
2018-04-25T12:38:18.343Z,12.20
2018-04-25T12:40:46.582Z,12.30
2018-04-25T12:43:14.828Z,12.60
2018-04-25T12:45:43.086Z,12.70
2018-04-25T12:48:12.083Z,12.90
2018-04-25T12:50:41.087Z,12.90
2018-04-25T12:53:10.074Z,12.80
2018-04-25T12:55:39.088Z,12.70
2018-04-25T12:58:07.327Z,12.80
2018-04-25T13:00:35.551Z,12.60
2018-04-25T13:03:03.776Z,12.60
2018-04-25T13:05:32.774Z,12.50
2018-04-25T13:08:01.771Z,12.40
2018-04-25T13:10:30.779Z,12.40
2018-04-25T13:12:59.031Z,12.40
2018-04-25T13:15:28.031Z,12.30
2018-04-25T13:17:56.253Z,12.30
2018-04-25T13:20:24.499Z,12.20
2018-04-25T13:22:52.730Z,12.10
2018-04-25T13:25:21.423Z,12.00
2018-04-25T13:27:49.642Z,11.90
2018-04-25T13:30:17.888Z,11.80
2018-04-25T13:32:46.877Z,11.70
2018-04-25T13:35:15.891Z,11.60
2018-04-25T13:37:44.150Z,11.60
2018-04-25T13:40:12.363Z,11.60
2018-04-25T13:42:40.646Z,11.60
2018-04-25T13:45:08.891Z,11.60
2018-04-25T13:47:37.114Z,11.60
2018-04-25T13:50:05.350Z,11.60
2018-04-25T13:52:33.616Z,11.60
2018-04-25T13:55:01.937Z,11.60
2018-04-25T13:57:30.167Z,11.80
2018-04-25T13:59:58.405Z,11.90
2018-04-25T14:02:26.630Z,12.20
2018-04-25T14:04:54.863Z,12.50
2018-04-25T14:07:23.100Z,12.50
2018-04-25T14:09:51.334Z,12.40
2018-04-25T14:12:19.558Z,12.60
2018-04-25T14:14:48.567Z,12.70
2018-04-25T14:17:16.815Z,12.60
2018-04-25T14:19:45.050Z,12.70
2018-04-25T14:22:13.289Z,12.80
2018-04-25T14:24:42.330Z,12.80
2018-04-25T14:27:11.286Z,12.80
2018-04-25T14:29:39.511Z,12.80
2018-04-25T14:32:07.750Z,12.70
2018-04-25T14:34:36.036Z,12.50
2018-04-25T14:37:04.267Z,12.40
2018-04-25T14:39:32.498Z,12.50
2018-04-25T14:42:00.735Z,12.60
2018-04-25T14:44:29.377Z,12.60
2018-04-25T14:46:57.606Z,12.60
2018-04-25T14:49:25.837Z,12.60
2018-04-25T14:51:54.842Z,12.60
2018-04-25T14:54:23.070Z,12.60
2018-04-25T14:56:51.310Z,12.50
2018-04-25T14:59:19.538Z,12.50
2018-04-25T15:01:48.539Z,12.40
2018-04-25T15:04:17.543Z,12.40
2018-04-25T15:06:46.551Z,12.40
2018-04-25T15:09:14.771Z,12.40
2018-04-25T15:11:43.006Z,12.40
2018-04-25T15:14:11.239Z,12.40
2018-04-25T15:16:40.250Z,12.50
2018-04-25T15:19:08.464Z,12.40
2018-04-25T15:21:36.704Z,12.50
2018-04-25T15:24:04.938Z,12.60
2018-04-25T15:26:33.182Z,12.60
2018-04-25T15:29:01.407Z,12.70
2018-04-25T15:31:30.421Z,12.90
2018-04-25T15:33:58.643Z,12.90
2018-04-25T15:36:26.898Z,13.00
2018-04-25T15:38:55.245Z,13.10
2018-04-25T15:41:23.881Z,13.00
2018-04-25T15:43:52.292Z,13.00
2018-04-25T15:46:22.385Z,13.00
2018-04-25T15:48:50.622Z,12.90
2018-04-25T15:51:19.771Z,12.90
2018-04-25T15:53:48.860Z,13.00
2018-04-25T15:56:17.852Z,13.10
2018-04-25T15:58:46.855Z,13.10
2018-04-25T16:01:15.079Z,13.10
2018-04-25T16:03:43.333Z,13.10
2018-04-25T16:06:11.557Z,13.10
2018-04-25T16:08:40.564Z,13.10
2018-04-25T16:11:09.668Z,13.10
2018-04-25T16:13:37.841Z,13.10
2018-04-25T16:16:06.069Z,13.20
2018-04-25T16:18:34.311Z,13.30
2018-04-25T16:21:02.544Z,13.70
2018-04-25T16:23:31.535Z,13.70
2018-04-25T16:26:00.575Z,13.70
2018-04-25T16:28:28.910Z,13.70
2018-04-25T16:30:57.050Z,13.70
2018-04-25T16:33:25.344Z,13.60
2018-04-25T16:35:54.730Z,13.20
2018-04-25T16:38:22.950Z,13.10
2018-04-25T16:40:51.175Z,13.00
2018-04-25T16:43:19.563Z,12.80
2018-04-25T16:45:47.772Z,12.80
2018-04-25T16:48:16.000Z,12.70
2018-04-25T16:50:44.237Z,12.70
2018-04-25T16:53:12.463Z,12.70
2018-04-25T16:55:41.467Z,12.60
2018-04-25T16:58:09.724Z,12.70
2018-04-25T17:00:38.732Z,12.50
2018-04-25T17:03:07.722Z,12.40
2018-04-25T17:05:35.965Z,12.40
2018-04-25T17:08:04.717Z,12.40
2018-04-25T17:10:33.384Z,12.50
2018-04-25T17:13:01.667Z,12.50
2018-04-25T17:15:29.909Z,12.40
2018-04-25T17:17:58.898Z,12.40
2018-04-25T17:20:27.955Z,12.30
2018-04-25T17:22:56.238Z,12.30
2018-04-25T17:25:25.631Z,11.90
2018-04-25T17:27:55.117Z,11.80
2018-04-25T17:30:23.355Z,11.20
2018-04-25T17:32:51.579Z,10.60
2018-04-25T17:35:19.826Z,10.30
2018-04-25T17:37:48.052Z,10.10
2018-04-25T17:40:17.059Z,9.80
2018-04-25T17:42:46.062Z,9.90
2018-04-25T17:45:15.039Z,9.90
2018-04-25T17:47:44.045Z,10.00
2018-04-25T17:50:13.071Z,10.00
2018-04-25T17:52:41.294Z,9.90
2018-04-25T17:55:10.299Z,10.10
2018-04-25T17:57:38.654Z,10.00
2018-04-25T18:00:06.763Z,10.10
2018-04-25T18:02:35.012Z,10.00
2018-04-25T18:05:03.995Z,9.90
2018-04-25T18:07:33.128Z,9.80
2018-04-25T18:10:01.339Z,9.80
2018-04-25T18:12:29.575Z,9.80
2018-04-25T18:14:57.812Z,9.70
2018-04-25T18:17:26.858Z,9.60
2018-04-25T18:19:55.080Z,9.60
2018-04-25T18:22:24.117Z,9.50
2018-04-25T18:24:53.064Z,9.50
2018-04-25T18:27:22.067Z,9.50
2018-04-25T18:29:51.059Z,9.50
2018-04-25T18:32:20.055Z,9.40
2018-04-25T18:34:48.277Z,9.40
2018-04-25T18:37:16.528Z,9.40
2018-04-25T18:39:44.726Z,9.30
2018-04-25T18:42:13.103Z,9.30
2018-04-25T18:44:41.592Z,9.30
2018-04-25T18:47:10.754Z,9.20
2018-04-25T18:49:39.136Z,9.20
2018-04-25T18:52:07.681Z,9.30
2018-04-25T18:54:36.795Z,9.20
2018-04-25T18:57:05.039Z,9.20
2018-04-25T18:59:34.311Z,9.20
2018-04-25T19:02:03.114Z,9.10
2018-04-25T19:04:32.110Z,9.10
2018-04-25T19:07:01.117Z,9.10
2018-04-25T19:09:29.365Z,9.10
2018-04-25T19:11:57.914Z,9.10
2018-04-25T19:14:26.156Z,9.10
2018-04-25T19:16:54.388Z,9.10
2018-04-25T19:19:22.740Z,9.00
2018-04-25T19:21:50.989Z,9.10
2018-04-25T19:24:19.552Z,9.00
2018-04-25T19:26:48.748Z,9.00
2018-04-25T19:29:17.753Z,9.00
2018-04-25T19:31:45.967Z,9.00
2018-04-25T19:34:14.203Z,9.00
2018-04-25T19:36:42.888Z,8.90
2018-04-25T19:39:11.129Z,8.90
2018-04-25T19:41:40.111Z,8.70
2018-04-25T19:44:08.496Z,8.70
2018-04-25T19:46:36.743Z,8.60
2018-04-25T19:49:04.977Z,8.50
2018-04-25T19:51:33.195Z,8.30
2018-04-25T19:54:01.615Z,8.30
2018-04-25T19:56:29.858Z,8.20
2018-04-25T19:58:58.368Z,8.20
2018-04-25T20:01:26.655Z,8.20
2018-04-25T20:03:54.898Z,8.10
2018-04-25T20:06:23.883Z,7.90
2018-04-25T20:08:52.150Z,7.90
2018-04-25T20:11:20.387Z,7.90
2018-04-25T20:13:48.683Z,7.80
2018-04-25T20:16:17.617Z,7.80
2018-04-25T20:18:45.862Z,7.80
2018-04-25T20:21:14.087Z,7.70
2018-04-25T20:23:42.319Z,7.70
2018-04-25T20:26:11.304Z,7.60
2018-04-25T20:28:39.534Z,7.50
2018-04-25T20:31:07.751Z,7.50
2018-04-25T20:33:35.993Z,7.50
2018-04-25T20:36:04.208Z,7.50
2018-04-25T20:38:33.207Z,7.50
2018-04-25T20:41:02.198Z,7.40
2018-04-25T20:43:31.194Z,7.40
2018-04-25T20:45:59.412Z,7.40
2018-04-25T20:48:27.655Z,7.30
2018-04-25T20:50:55.880Z,7.30
2018-04-25T20:53:24.116Z,7.20
2018-04-25T20:55:52.382Z,7.20
2018-04-25T20:58:20.615Z,7.20
2018-04-25T21:00:48.835Z,7.10
2018-04-25T21:03:17.063Z,7.10
2018-04-25T21:05:45.316Z,7.00
2018-04-25T21:08:13.528Z,7.00
2018-04-25T21:10:42.520Z,7.00
2018-04-25T21:13:11.516Z,6.90
2018-04-25T21:15:39.741Z,6.90
2018-04-25T21:18:07.975Z,6.90
2018-04-25T21:20:36.197Z,6.80
2018-04-25T21:23:04.446Z,6.80
2018-04-25T21:25:32.679Z,6.80
2018-04-25T21:28:01.683Z,6.80
2018-04-25T21:30:29.922Z,6.80
2018-04-25T21:32:58.152Z,6.90
2018-04-25T21:35:26.392Z,6.80
2018-04-25T21:37:54.618Z,6.80
2018-04-25T21:40:22.852Z,6.70
2018-04-25T21:42:51.112Z,6.70
2018-04-25T21:45:20.103Z,6.70
2018-04-25T21:47:48.327Z,6.60
2018-04-25T21:50:16.569Z,6.60
2018-04-25T21:52:44.806Z,6.70
2018-04-25T21:55:13.178Z,6.60
2018-04-25T21:57:41.405Z,6.80
2018-04-25T22:00:09.650Z,6.80
2018-04-25T22:02:37.883Z,6.70
2018-04-25T22:05:06.123Z,6.80
2018-04-25T22:07:34.756Z,6.80
2018-04-25T22:10:02.966Z,6.80
2018-04-25T22:12:31.197Z,6.80
2018-04-25T22:14:59.439Z,6.90
2018-04-25T22:17:27.675Z,6.90
2018-04-25T22:19:55.920Z,7.00
2018-04-25T22:22:24.146Z,7.10
2018-04-25T22:24:52.390Z,7.10
2018-04-25T22:27:21.388Z,7.10
2018-04-25T22:29:49.627Z,7.10
2018-04-25T22:32:17.859Z,6.90
2018-04-25T22:34:46.112Z,6.90
2018-04-25T22:37:14.332Z,6.80
2018-04-25T22:39:42.574Z,6.80
2018-04-25T22:42:10.806Z,6.90
2018-04-25T22:44:39.046Z,6.90
2018-04-25T22:47:07.278Z,6.90
2018-04-25T22:49:35.518Z,6.90
2018-04-25T22:52:03.747Z,7.00
2018-04-25T22:54:31.991Z,7.10
2018-04-25T22:57:00.982Z,7.60
2018-04-25T22:59:29.996Z,7.70
2018-04-25T23:01:58.220Z,7.70
2018-04-25T23:04:26.462Z,7.80
2018-04-25T23:06:54.691Z,7.90
2018-04-25T23:09:23.691Z,8.20
2018-04-25T23:11:51.983Z,8.20
2018-04-25T23:14:20.222Z,8.20
2018-04-25T23:16:49.219Z,8.40
2018-04-25T23:19:18.215Z,8.50
2018-04-25T23:21:47.194Z,8.60
2018-04-25T23:24:16.203Z,8.70
2018-04-25T23:26:45.194Z,8.60
2018-04-25T23:29:14.190Z,8.60
2018-04-25T23:31:43.182Z,8.60
2018-04-25T23:34:12.167Z,8.60
2018-04-25T23:36:41.167Z,8.50
2018-04-25T23:39:09.387Z,8.50
2018-04-25T23:41:37.623Z,8.60
2018-04-25T23:44:06.414Z,8.50
2018-04-25T23:46:35.387Z,8.50
2018-04-25T23:49:04.371Z,8.50
2018-04-25T23:51:33.376Z,8.50
2018-04-25T23:54:02.359Z,8.60
2018-04-25T23:56:31.358Z,8.60
2018-04-25T23:58:59.575Z,8.60
